^^
Atglen Borough Weather Station Historical Data
 
Daily Summary for November 18, 2018 Units:  English    Metric   Both
Daily Weekly Monthly Yearly Custom
  Current: High: Low: Average:
Temperature: 44.2 °F 44.4 °F 28.6 °F 34.5 °F
Dew Point: 36.1 °F 36.7 °F 27.5 °F 31.2 °F
Humidity: 73% 96% 72% 88%
Wind Speed: 2.9mph 8.9mph 0.0mph 1.2mph
Wind Gust: 5.0mph 11.0mph - -
WindSSE - - SSE
Pressure: 30.27 in 30.38 in 30.27 in -
Precipitation: 0.00 in      
Historical Graphs
 
 
Tabular Data for November 18, 2018
Time Temperature Dew Point Pressure Wind Wind Speed Wind Gust Humidity Rainfall Rate (Hourly)
00:04 29.7 °F 28.4 °F 30.32 in Calm     95% 0.00 in
00:09 29.5 °F 28.2 °F 30.32 in Calm     95% 0.00 in
00:14 29.7 °F 28.4 °F 30.32 in Calm     95% 0.00 in
00:19 29.7 °F 28.4 °F 30.32 in Calm     95% 0.00 in
00:24 29.5 °F 28.2 °F 30.32 in Calm     95% 0.00 in
00:29 29.7 °F 28.4 °F 30.32 in Calm     95% 0.00 in
00:34 29.7 °F 28.4 °F 30.32 in Calm     95% 0.00 in
00:39 29.7 °F 28.4 °F 30.32 in Calm     95% 0.00 in
00:44 29.7 °F 28.4 °F 30.32 in Calm     95% 0.00 in
00:49 29.5 °F 28.2 °F 30.32 in Calm     95% 0.00 in
00:54 29.5 °F 28.2 °F 30.32 in Calm     95% 0.00 in
00:59 29.7 °F 28.4 °F 30.32 in Calm     95% 0.00 in
01:04 29.7 °F 28.6 °F 30.31 in Calm     96% 0.00 in
01:09 29.7 °F 28.6 °F 30.32 in Calm     96% 0.00 in
01:14 29.7 °F 28.6 °F 30.31 in Calm     96% 0.00 in
01:19 29.7 °F 28.6 °F 30.31 in Calm     96% 0.00 in
01:24 29.7 °F 28.6 °F 30.32 in Calm     96% 0.00 in
01:29 29.5 °F 28.2 °F 30.32 in Calm     95% 0.00 in
01:34 29.3 °F 28.0 °F 30.32 in Calm     95% 0.00 in
01:39 29.1 °F 27.9 °F 30.32 in Calm     95% 0.00 in
01:44 28.9 °F 27.7 °F 30.32 in Calm     95% 0.00 in
01:49 28.9 °F 27.7 °F 30.33 in Calm     95% 0.00 in
01:54 28.9 °F 27.7 °F 30.33 in Calm     95% 0.00 in
01:59 28.9 °F 27.9 °F 30.33 in Calm     96% 0.00 in
02:04 28.9 °F 27.9 °F 30.33 in Calm     96% 0.00 in
02:09 28.9 °F 27.9 °F 30.33 in Calm     96% 0.00 in
02:14 28.9 °F 27.9 °F 30.33 in Calm     96% 0.00 in
02:19 28.9 °F 27.9 °F 30.33 in Calm     96% 0.00 in
02:24 28.9 °F 27.9 °F 30.33 in Calm     96% 0.00 in
02:29 28.8 °F 27.7 °F 30.33 in Calm     96% 0.00 in
02:34 28.8 °F 27.7 °F 30.34 in Calm     96% 0.00 in
02:39 28.8 °F 27.7 °F 30.33 in Calm     96% 0.00 in
02:44 28.8 °F 27.7 °F 30.33 in Calm     96% 0.00 in
02:49 28.8 °F 27.7 °F 30.34 in Calm     96% 0.00 in
02:54 28.8 °F 27.7 °F 30.33 in Calm     96% 0.00 in
02:59 28.8 °F 27.7 °F 30.34 in Calm     96% 0.00 in
03:04 28.8 °F 27.7 °F 30.34 in Calm     96% 0.00 in
03:09 28.6 °F 27.5 °F 30.34 in Calm     96% 0.00 in
03:14 28.6 °F 27.5 °F 30.34 in Calm     96% 0.00 in
03:19 28.8 °F 27.7 °F 30.34 in Calm     96% 0.00 in
03:24 28.8 °F 27.7 °F 30.34 in Calm     96% 0.00 in
03:29 28.9 °F 27.9 °F 30.34 in Calm     96% 0.00 in
03:34 28.9 °F 27.9 °F 30.33 in Calm     96% 0.00 in
03:39 28.9 °F 27.9 °F 30.33 in Calm     96% 0.00 in
03:44 28.9 °F 27.9 °F 30.33 in Calm     96% 0.00 in
03:49 28.9 °F 27.9 °F 30.33 in Calm     96% 0.00 in
03:54 29.1 °F 28.0 °F 30.32 in Calm     96% 0.00 in
03:59 28.9 °F 27.9 °F 30.32 in Calm     96% 0.00 in
04:04 28.9 °F 27.9 °F 30.33 in Calm     96% 0.00 in
04:09 28.8 °F 27.7 °F 30.33 in Calm     96% 0.00 in
04:14 28.8 °F 27.7 °F 30.33 in Calm     96% 0.00 in
04:19 28.8 °F 27.7 °F 30.33 in Calm     96% 0.00 in
04:24 28.8 °F 27.7 °F 30.33 in Calm     96% 0.00 in
04:29 28.9 °F 27.9 °F 30.33 in Calm     96% 0.00 in
04:34 28.9 °F 27.9 °F 30.34 in West 0.9 mph 2.0 mph 96% 0.00 in
04:39 29.1 °F 28.0 °F 30.34 in West 0.9 mph 2.0 mph 96% 0.00 in
04:44 29.1 °F 28.0 °F 30.34 in Calm   1.0 mph 96% 0.00 in
04:49 29.1 °F 28.0 °F 30.34 in West 2.0 mph 2.0 mph 96% 0.00 in
04:54 29.1 °F 28.0 °F 30.34 in Calm   1.0 mph 96% 0.00 in
04:59 28.9 °F 27.9 °F 30.34 in Calm     96% 0.00 in
05:04 28.8 °F 27.7 °F 30.34 in West 0.9 mph 1.0 mph 96% 0.00 in
05:09 28.8 °F 27.7 °F 30.34 in Calm     96% 0.00 in
05:14 28.6 °F 27.5 °F 30.35 in West 0.9 mph 1.0 mph 96% 0.00 in
05:19 28.8 °F 27.7 °F 30.34 in Calm     96% 0.00 in
05:24 28.8 °F 27.7 °F 30.35 in Calm   1.0 mph 96% 0.00 in
05:29 28.8 °F 27.7 °F 30.35 in Calm     96% 0.00 in
05:34 28.9 °F 27.9 °F 30.35 in Calm     96% 0.00 in
05:39 29.1 °F 28.0 °F 30.35 in Calm   1.0 mph 96% 0.00 in
05:44 29.5 °F 28.4 °F 30.35 in Calm     96% 0.00 in
05:49 29.5 °F 28.4 °F 30.35 in Calm     96% 0.00 in
05:54 29.7 °F 28.6 °F 30.35 in West 1.0 mph 1.0 mph 96% 0.00 in
05:59 29.8 °F 28.8 °F 30.36 in Calm   1.0 mph 96% 0.00 in
06:04 29.8 °F 28.8 °F 30.36 in Calm     96% 0.00 in
06:09 30.0 °F 28.9 °F 30.36 in Calm     96% 0.00 in
06:14 30.0 °F 28.9 °F 30.37 in Calm   1.0 mph 96% 0.00 in
06:19 30.2 °F 29.1 °F 30.37 in Calm     96% 0.00 in
06:24 30.4 °F 29.3 °F 30.36 in Calm     96% 0.00 in
06:29 30.4 °F 29.3 °F 30.36 in Calm     96% 0.00 in
06:34 30.6 °F 29.5 °F 30.36 in Calm     96% 0.00 in
06:39 30.6 °F 29.5 °F 30.36 in Calm     96% 0.00 in
06:44 30.7 °F 29.7 °F 30.36 in Calm     96% 0.00 in
06:49 30.7 °F 29.7 °F 30.36 in Calm     96% 0.00 in
06:54 30.9 °F 29.8 °F 30.36 in Calm   1.0 mph 96% 0.00 in
06:59 30.9 °F 29.8 °F 30.36 in Calm   2.0 mph 96% 0.00 in
07:04 30.9 °F 29.8 °F 30.36 in Calm   3.0 mph 96% 0.00 in
07:09 31.1 °F 30.0 °F 30.36 in Calm     96% 0.00 in
07:14 31.3 °F 30.2 °F 30.36 in Calm     96% 0.00 in
07:19 31.3 °F 30.2 °F 30.37 in Calm     96% 0.00 in
07:24 31.5 °F 30.4 °F 30.37 in Calm     96% 0.00 in
07:29 31.5 °F 30.4 °F 30.37 in Calm     96% 0.00 in
07:34 31.6 °F 30.6 °F 30.37 in Calm     96% 0.00 in
07:39 31.8 °F 30.7 °F 30.37 in Calm     96% 0.00 in
07:44 31.8 °F 30.7 °F 30.37 in Calm     96% 0.00 in
07:49 32.0 °F 30.9 °F 30.37 in Calm     96% 0.00 in
07:54 32.2 °F 31.1 °F 30.37 in Calm   1.0 mph 96% 0.00 in
07:59 32.2 °F 31.1 °F 30.37 in Calm     96% 0.00 in
08:04 32.2 °F 31.1 °F 30.37 in Calm   1.0 mph 96% 0.00 in
08:09 32.4 °F 31.3 °F 30.37 in Calm     96% 0.00 in
08:14 32.5 °F 31.5 °F 30.38 in Calm     96% 0.00 in
08:19 32.7 °F 31.6 °F 30.37 in Calm     96% 0.00 in
08:24 32.9 °F 31.8 °F 30.37 in Calm     96% 0.00 in
08:29 33.3 °F 32.2 °F 30.37 in Calm   1.0 mph 96% 0.00 in
08:34 33.6 °F 32.4 °F 30.37 in Calm     95% 0.00 in
08:39 34.2 °F 32.5 °F 30.38 in Calm     94% 0.00 in
08:44 34.3 °F 32.7 °F 30.38 in Calm     94% 0.00 in
08:49 34.7 °F 33.1 °F 30.38 in West 0.9 mph 2.0 mph 94% 0.00 in
08:54 35.1 °F 33.3 °F 30.37 in West 0.9 mph 2.0 mph 93% 0.00 in
08:59 35.4 °F 33.6 °F 30.37 in Calm   2.0 mph 93% 0.00 in
09:04 35.8 °F 34.0 °F 30.37 in Calm   2.0 mph 93% 0.00 in
09:09 36.5 °F 34.7 °F 30.38 in West 0.9 mph 3.0 mph 93% 0.00 in
09:14 37.2 °F 34.9 °F 30.37 in West 2.0 mph 3.0 mph 91% 0.00 in
09:19 37.8 °F 34.9 °F 30.38 in ESE 0.9 mph 3.0 mph 89% 0.00 in
09:24 37.9 °F 34.2 °F 30.38 in ESE 0.9 mph 3.0 mph 86% 0.00 in
09:29 37.9 °F 33.8 °F 30.37 in ESE 2.9 mph 8.0 mph 85% 0.00 in
09:34 38.3 °F 34.0 °F 30.37 in East 2.0 mph 4.0 mph 84% 0.00 in
09:39 38.7 °F 34.0 °F 30.37 in ESE 2.0 mph 3.0 mph 83% 0.00 in
09:44 39.0 °F 34.0 °F 30.37 in ESE 4.0 mph 8.0 mph 82% 0.00 in
09:49 39.4 °F 34.0 °F 30.37 in ESE 4.0 mph 6.0 mph 81% 0.00 in
09:54 39.4 °F 33.8 °F 30.37 in Calm     80% 0.00 in
09:59 39.7 °F 33.8 °F 30.37 in SE 0.9 mph 3.0 mph 79% 0.00 in
10:04 39.9 °F 34.0 °F 30.37 in ESE 2.9 mph 7.0 mph 79% 0.00 in
10:09 39.9 °F 33.6 °F 30.37 in SE 2.9 mph 7.0 mph 78% 0.00 in
10:14 40.3 °F 34.0 °F 30.37 in ESE 2.9 mph 7.0 mph 78% 0.00 in
10:19 40.6 °F 34.3 °F 30.37 in ESE 2.9 mph 4.0 mph 78% 0.00 in
10:24 41.0 °F 34.7 °F 30.36 in ESE 2.0 mph 5.0 mph 78% 0.00 in
10:29 41.4 °F 34.7 °F 30.36 in South 4.0 mph 7.0 mph 77% 0.00 in
10:34 41.5 °F 34.9 °F 30.36 in SE 4.0 mph 7.0 mph 77% 0.00 in
10:39 41.7 °F 34.7 °F 30.36 in ESE 4.0 mph 4.0 mph 76% 0.00 in
10:44 41.9 °F 34.9 °F 30.36 in SE 2.0 mph 5.0 mph 76% 0.00 in
10:49 41.7 °F 34.7 °F 30.36 in SE 2.9 mph 7.0 mph 76% 0.00 in
10:54 42.1 °F 35.4 °F 30.35 in SE 2.0 mph 5.0 mph 77% 0.00 in
10:59 42.3 °F 35.2 °F 30.35 in ESE 6.9 mph 10.0 mph 76% 0.00 in
11:04 42.3 °F 34.9 °F 30.35 in SE 4.9 mph 9.0 mph 75% 0.00 in
11:09 42.3 °F 34.9 °F 30.34 in South 4.0 mph 9.0 mph 75% 0.00 in
11:14 42.4 °F 35.1 °F 30.34 in ESE 4.0 mph 8.0 mph 75% 0.00 in
11:19 42.4 °F 35.1 °F 30.34 in SSE 4.0 mph 11.0 mph 75% 0.00 in
11:24 42.4 °F 34.7 °F 30.34 in SE 4.0 mph 9.0 mph 74% 0.00 in
11:29 42.4 °F 34.7 °F 30.34 in SSE 2.9 mph 7.0 mph 74% 0.00 in
11:34 42.6 °F 35.2 °F 30.33 in SE 2.0 mph 7.0 mph 75% 0.00 in
11:39 42.6 °F 34.9 °F 30.33 in SSE 2.9 mph 7.0 mph 74% 0.00 in
11:44 43.0 °F 35.2 °F 30.33 in SSE 4.0 mph 9.0 mph 74% 0.00 in
11:49 42.8 °F 34.7 °F 30.33 in SE 4.0 mph 10.0 mph 73% 0.00 in
11:54 42.8 °F 34.7 °F 30.32 in ESE 8.1 mph 10.0 mph 73% 0.00 in
11:59 43.0 °F 35.2 °F 30.32 in SE 8.9 mph 11.0 mph 74% 0.00 in
12:04 43.0 °F 34.9 °F 30.32 in South 2.0 mph 8.0 mph 73% 0.00 in
12:09 43.2 °F 34.7 °F 30.32 in SSE 4.0 mph 10.0 mph 72% 0.00 in
12:14 43.2 °F 34.7 °F 30.32 in SSE 0.9 mph 7.0 mph 72% 0.00 in
12:19 43.3 °F 34.9 °F 30.32 in SSE 6.0 mph 7.0 mph 72% 0.00 in
12:24 43.5 °F 35.1 °F 30.31 in SSE 6.0 mph 8.0 mph 72% 0.00 in
12:29 43.5 °F 35.1 °F 30.31 in South 4.9 mph 7.0 mph 72% 0.00 in
12:34 43.5 °F 35.1 °F 30.31 in South 4.9 mph 7.0 mph 72% 0.00 in
12:39 43.5 °F 35.1 °F 30.31 in SSE 6.9 mph 8.0 mph 72% 0.00 in
12:44 43.3 °F 34.9 °F 30.31 in SSE 4.9 mph 9.0 mph 72% 0.00 in
12:49 43.3 °F 34.9 °F 30.30 in SE 2.9 mph 10.0 mph 72% 0.00 in
12:54 43.3 °F 34.9 °F 30.30 in SSE 4.0 mph 9.0 mph 72% 0.00 in
12:59 43.5 °F 35.4 °F 30.30 in SE 2.0 mph 7.0 mph 73% 0.00 in
13:04 43.7 °F 35.6 °F 30.30 in SSE 2.9 mph 5.0 mph 73% 0.00 in
13:09 43.7 °F 35.6 °F 30.30 in SSE 4.9 mph 6.0 mph 73% 0.00 in
13:14 43.7 °F 35.6 °F 30.30 in SSW 0.9 mph 5.0 mph 73% 0.00 in
13:19 43.9 °F 36.1 °F 30.30 in SSE 4.0 mph 6.0 mph 74% 0.00 in
13:24 43.9 °F 35.8 °F 30.30 in SSE 2.0 mph 9.0 mph 73% 0.00 in
13:29 43.9 °F 36.1 °F 30.29 in South 2.0 mph 5.0 mph 74% 0.00 in
13:34 44.1 °F 36.3 °F 30.29 in SW 2.0 mph 4.0 mph 74% 0.00 in
13:39 43.9 °F 36.1 °F 30.29 in SSE 2.0 mph 5.0 mph 74% 0.00 in
13:44 43.9 °F 36.1 °F 30.29 in SSE 2.9 mph 4.0 mph 74% 0.00 in
13:49 44.1 °F 36.3 °F 30.29 in SSW 2.0 mph 7.0 mph 74% 0.00 in
13:54 43.9 °F 36.1 °F 30.28 in SSE 2.9 mph 7.0 mph 74% 0.00 in
13:59 44.1 °F 36.0 °F 30.28 in SE 2.9 mph 9.0 mph 73% 0.00 in
14:04 44.2 °F 36.5 °F 30.28 in SSE 2.9 mph 5.0 mph 74% 0.00 in
14:09 44.4 °F 36.7 °F 30.28 in SSE 0.9 mph 3.0 mph 74% 0.00 in
14:14 44.4 °F 36.3 °F 30.27 in ESE 2.9 mph 5.0 mph 73% 0.00 in
14:19 44.4 °F 36.3 °F 30.27 in SSE 0.9 mph 4.0 mph 73% 0.00 in
14:24 44.2 °F 36.1 °F 30.27 in SSE 2.9 mph 5.0 mph 73% 0.00 in
Atglen Borough, Pennsylvania, USA
Compliments of Weather Underground - 2.75 mb